sensor_id;sensor_type;location;lat;lon;timestamp;P1;durP1;ratioP1;P2;durP2;ratioP2
12112;SDS011;6120;52.250;8.478;2022-09-01T00:01:26;0.93;;;0.50;;
12112;SDS011;6120;52.250;8.478;2022-09-01T00:03:54;3.30;;;0.90;;
12112;SDS011;6120;52.250;8.478;2022-09-01T00:06:29;3.13;;;0.80;;
12112;SDS011;6120;52.250;8.478;2022-09-01T00:08:59;2.38;;;0.93;;
12112;SDS011;6120;52.250;8.478;2022-09-01T00:11:28;1.38;;;0.75;;
12112;SDS011;6120;52.250;8.478;2022-09-01T00:13:55;5.70;;;0.90;;
12112;SDS011;6120;52.250;8.478;2022-09-01T00:16:22;0.85;;;0.60;;
12112;SDS011;6120;52.250;8.478;2022-09-01T00:18:51;2.33;;;0.85;;
12112;SDS011;6120;52.250;8.478;2022-09-01T00:21:21;1.20;;;0.80;;
12112;SDS011;6120;52.250;8.478;2022-09-01T00:23:50;1.58;;;0.90;;
12112;SDS011;6120;52.250;8.478;2022-09-01T00:26:17;1.50;;;0.70;;
12112;SDS011;6120;52.250;8.478;2022-09-01T00:28:43;1.35;;;0.82;;
12112;SDS011;6120;52.250;8.478;2022-09-01T00:31:10;2.30;;;0.90;;
12112;SDS011;6120;52.250;8.478;2022-09-01T00:33:40;1.48;;;0.80;;
12112;SDS011;6120;52.250;8.478;2022-09-01T00:36:07;1.75;;;0.75;;
12112;SDS011;6120;52.250;8.478;2022-09-01T00:38:34;1.17;;;0.75;;
12112;SDS011;6120;52.250;8.478;2022-09-01T00:41:00;2.47;;;0.85;;
12112;SDS011;6120;52.250;8.478;2022-09-01T00:43:44;2.90;;;0.90;;
12112;SDS011;6120;52.250;8.478;2022-09-01T00:46:16;1.60;;;0.90;;
12112;SDS011;6120;52.250;8.478;2022-09-01T00:49:05;1.40;;;0.80;;
12112;SDS011;6120;52.250;8.478;2022-09-01T00:51:34;1.33;;;0.90;;
12112;SDS011;6120;52.250;8.478;2022-09-01T00:54:05;1.83;;;0.90;;
12112;SDS011;6120;52.250;8.478;2022-09-01T00:56:33;2.97;;;0.90;;
12112;SDS011;6120;52.250;8.478;2022-09-01T00:59:00;2.00;;;0.80;;
12112;SDS011;6120;52.250;8.478;2022-09-01T01:01:27;2.97;;;1.05;;
12112;SDS011;6120;52.250;8.478;2022-09-01T01:03:54;1.88;;;1.00;;
12112;SDS011;6120;52.250;8.478;2022-09-01T01:06:20;4.00;;;1.00;;
12112;SDS011;6120;52.250;8.478;2022-09-01T01:08:57;3.22;;;1.20;;
12112;SDS011;6120;52.250;8.478;2022-09-01T01:11:27;1.45;;;0.80;;
12112;SDS011;6120;52.250;8.478;2022-09-01T01:14:01;2.38;;;0.90;;
12112;SDS011;6120;52.250;8.478;2022-09-01T01:16:38;1.75;;;0.80;;
12112;SDS011;6120;52.250;8.478;2022-09-01T01:19:22;1.80;;;1.05;;
12112;SDS011;6120;52.250;8.478;2022-09-01T01:22:16;1.05;;;0.70;;
12112;SDS011;6120;52.250;8.478;2022-09-01T01:25:06;2.38;;;0.93;;
12112;SDS011;6120;52.250;8.478;2022-09-01T01:27:33;3.58;;;1.00;;
12112;SDS011;6120;52.250;8.478;2022-09-01T01:30:09;2.38;;;0.88;;
12112;SDS011;6120;52.250;8.478;2022-09-01T01:35:09;1.27;;;0.80;;
12112;SDS011;6120;52.250;8.478;2022-09-01T01:37:44;1.98;;;1.00;;
12112;SDS011;6120;52.250;8.478;2022-09-01T01:40:16;2.88;;;0.93;;
12112;SDS011;6120;52.250;8.478;2022-09-01T01:42:45;1.63;;;0.80;;
12112;SDS011;6120;52.250;8.478;2022-09-01T01:45:14;1.70;;;0.90;;
12112;SDS011;6120;52.250;8.478;2022-09-01T01:47:45;3.63;;;1.00;;
12112;SDS011;6120;52.250;8.478;2022-09-01T01:50:17;2.78;;;1.00;;
12112;SDS011;6120;52.250;8.478;2022-09-01T01:52:47;2.03;;;0.90;;
12112;SDS011;6120;52.250;8.478;2022-09-01T01:55:23;4.63;;;0.85;;
12112;SDS011;6120;52.250;8.478;2022-09-01T01:57:54;2.60;;;0.90;;
12112;SDS011;6120;52.250;8.478;2022-09-01T02:00:23;2.00;;;0.77;;
12112;SDS011;6120;52.250;8.478;2022-09-01T02:02:56;1.98;;;0.98;;
12112;SDS011;6120;52.250;8.478;2022-09-01T02:05:29;3.47;;;0.80;;
12112;SDS011;6120;52.250;8.478;2022-09-01T02:07:59;1.95;;;0.80;;
12112;SDS011;6120;52.250;8.478;2022-09-01T02:10:30;1.92;;;0.82;;
12112;SDS011;6120;52.250;8.478;2022-09-01T02:13:00;1.73;;;0.93;;
12112;SDS011;6120;52.250;8.478;2022-09-01T02:15:33;1.40;;;0.80;;
12112;SDS011;6120;52.250;8.478;2022-09-01T02:18:09;1.67;;;0.80;;
12112;SDS011;6120;52.250;8.478;2022-09-01T02:20:40;1.08;;;0.65;;
12112;SDS011;6120;52.250;8.478;2022-09-01T02:23:08;1.17;;;0.80;;
12112;SDS011;6120;52.250;8.478;2022-09-01T02:25:37;1.52;;;0.73;;
12112;SDS011;6120;52.250;8.478;2022-09-01T02:28:30;2.65;;;0.82;;
12112;SDS011;6120;52.250;8.478;2022-09-01T02:30:58;1.75;;;0.98;;
12112;SDS011;6120;52.250;8.478;2022-09-01T02:33:25;1.13;;;0.80;;
12112;SDS011;6120;52.250;8.478;2022-09-01T02:38:21;0.95;;;0.63;;
12112;SDS011;6120;52.250;8.478;2022-09-01T02:40:51;2.08;;;0.98;;
12112;SDS011;6120;52.250;8.478;2022-09-01T02:43:19;3.40;;;1.33;;
12112;SDS011;6120;52.250;8.478;2022-09-01T02:45:46;1.97;;;0.90;;
12112;SDS011;6120;52.250;8.478;2022-09-01T02:48:18;1.75;;;1.02;;
12112;SDS011;6120;52.250;8.478;2022-09-01T02:50:47;1.98;;;0.95;;
12112;SDS011;6120;52.250;8.478;2022-09-01T02:53:14;1.63;;;1.00;;
12112;SDS011;6120;52.250;8.478;2022-09-01T02:55:41;2.65;;;0.98;;
12112;SDS011;6120;52.250;8.478;2022-09-01T02:58:08;1.15;;;0.80;;
12112;SDS011;6120;52.250;8.478;2022-09-01T03:00:41;3.10;;;0.90;;
12112;SDS011;6120;52.250;8.478;2022-09-01T03:03:09;1.93;;;1.00;;
12112;SDS011;6120;52.250;8.478;2022-09-01T03:05:42;3.30;;;1.08;;
12112;SDS011;6120;52.250;8.478;2022-09-01T03:08:09;2.33;;;0.90;;
12112;SDS011;6120;52.250;8.478;2022-09-01T03:10:40;1.88;;;1.10;;
12112;SDS011;6120;52.250;8.478;2022-09-01T03:13:09;2.65;;;1.02;;
12112;SDS011;6120;52.250;8.478;2022-09-01T03:15:38;5.07;;;0.90;;
12112;SDS011;6120;52.250;8.478;2022-09-01T03:18:06;1.20;;;0.87;;
12112;SDS011;6120;52.250;8.478;2022-09-01T03:23:04;1.85;;;0.98;;
12112;SDS011;6120;52.250;8.478;2022-09-01T03:25:33;2.92;;;1.00;;
12112;SDS011;6120;52.250;8.478;2022-09-01T03:28:02;1.23;;;0.90;;
12112;SDS011;6120;52.250;8.478;2022-09-01T03:32:58;1.33;;;0.80;;
12112;SDS011;6120;52.250;8.478;2022-09-01T03:35:26;1.80;;;0.87;;
12112;SDS011;6120;52.250;8.478;2022-09-01T03:37:54;3.95;;;1.00;;
12112;SDS011;6120;52.250;8.478;2022-09-01T03:40:24;1.33;;;0.82;;
12112;SDS011;6120;52.250;8.478;2022-09-01T03:42:53;1.38;;;0.70;;
12112;SDS011;6120;52.250;8.478;2022-09-01T03:45:20;3.30;;;1.35;;
12112;SDS011;6120;52.250;8.478;2022-09-01T03:47:51;1.70;;;0.98;;
12112;SDS011;6120;52.250;8.478;2022-09-01T03:50:20;3.90;;;1.10;;
12112;SDS011;6120;52.250;8.478;2022-09-01T03:52:50;2.58;;;1.10;;
12112;SDS011;6120;52.250;8.478;2022-09-01T03:55:23;1.40;;;0.82;;
12112;SDS011;6120;52.250;8.478;2022-09-01T03:57:53;0.80;;;0.80;;
12112;SDS011;6120;52.250;8.478;2022-09-01T04:00:23;1.20;;;0.80;;
12112;SDS011;6120;52.250;8.478;2022-09-01T04:02:51;1.67;;;0.90;;
12112;SDS011;6120;52.250;8.478;2022-09-01T04:05:22;2.92;;;1.10;;
12112;SDS011;6120;52.250;8.478;2022-09-01T04:07:57;1.58;;;0.93;;
12112;SDS011;6120;52.250;8.478;2022-09-01T04:10:29;1.65;;;1.00;;
12112;SDS011;6120;52.250;8.478;2022-09-01T04:12:58;2.80;;;1.00;;
12112;SDS011;6120;52.250;8.478;2022-09-01T04:15:26;3.28;;;0.95;;
12112;SDS011;6120;52.250;8.478;2022-09-01T04:17:53;3.30;;;1.10;;
12112;SDS011;6120;52.250;8.478;2022-09-01T04:20:36;2.72;;;1.00;;
12112;SDS011;6120;52.250;8.478;2022-09-01T04:25:52;1.20;;;0.80;;
12112;SDS011;6120;52.250;8.478;2022-09-01T04:28:21;2.78;;;1.00;;
12112;SDS011;6120;52.250;8.478;2022-09-01T04:30:50;2.35;;;1.20;;
12112;SDS011;6120;52.250;8.478;2022-09-01T04:33:21;2.97;;;1.00;;
12112;SDS011;6120;52.250;8.478;2022-09-01T04:35:50;3.13;;;1.10;;
12112;SDS011;6120;52.250;8.478;2022-09-01T04:38:20;1.23;;;1.05;;
12112;SDS011;6120;52.250;8.478;2022-09-01T04:40:50;1.45;;;0.90;;
12112;SDS011;6120;52.250;8.478;2022-09-01T04:43:17;1.35;;;0.77;;
12112;SDS011;6120;52.250;8.478;2022-09-01T04:45:44;1.38;;;0.88;;
12112;SDS011;6120;52.250;8.478;2022-09-01T04:48:12;2.58;;;1.20;;
12112;SDS011;6120;52.250;8.478;2022-09-01T04:50:39;2.00;;;0.80;;
12112;SDS011;6120;52.250;8.478;2022-09-01T04:53:06;1.65;;;1.20;;
12112;SDS011;6120;52.250;8.478;2022-09-01T04:55:38;2.13;;;1.30;;
12112;SDS011;6120;52.250;8.478;2022-09-01T04:58:09;5.35;;;1.55;;
12112;SDS011;6120;52.250;8.478;2022-09-01T05:00:39;3.55;;;2.08;;
12112;SDS011;6120;52.250;8.478;2022-09-01T05:03:06;3.97;;;1.50;;
12112;SDS011;6120;52.250;8.478;2022-09-01T05:05:37;1.80;;;1.30;;
12112;SDS011;6120;52.250;8.478;2022-09-01T05:08:09;4.40;;;1.30;;
12112;SDS011;6120;52.250;8.478;2022-09-01T05:10:50;2.72;;;1.17;;
12112;SDS011;6120;52.250;8.478;2022-09-01T05:13:20;2.80;;;1.40;;
12112;SDS011;6120;52.250;8.478;2022-09-01T05:16:02;5.50;;;1.67;;
12112;SDS011;6120;52.250;8.478;2022-09-01T05:18:31;3.80;;;1.25;;
12112;SDS011;6120;52.250;8.478;2022-09-01T05:21:03;3.35;;;1.30;;
12112;SDS011;6120;52.250;8.478;2022-09-01T05:23:35;2.42;;;0.95;;
12112;SDS011;6120;52.250;8.478;2022-09-01T05:26:10;1.85;;;1.00;;
12112;SDS011;6120;52.250;8.478;2022-09-01T05:28:43;2.80;;;1.27;;
12112;SDS011;6120;52.250;8.478;2022-09-01T05:31:10;1.67;;;1.07;;
12112;SDS011;6120;52.250;8.478;2022-09-01T05:33:38;2.20;;;1.07;;
12112;SDS011;6120;52.250;8.478;2022-09-01T05:36:12;3.53;;;1.20;;
12112;SDS011;6120;52.250;8.478;2022-09-01T05:41:07;2.23;;;1.07;;
12112;SDS011;6120;52.250;8.478;2022-09-01T05:43:36;3.08;;;1.40;;
12112;SDS011;6120;52.250;8.478;2022-09-01T05:46:07;4.45;;;1.38;;
12112;SDS011;6120;52.250;8.478;2022-09-01T05:48:34;4.80;;;1.65;;
12112;SDS011;6120;52.250;8.478;2022-09-01T05:51:05;2.17;;;1.20;;
12112;SDS011;6120;52.250;8.478;2022-09-01T05:53:53;2.58;;;1.35;;
12112;SDS011;6120;52.250;8.478;2022-09-01T05:56:28;4.53;;;1.60;;
12112;SDS011;6120;52.250;8.478;2022-09-01T05:58:56;3.65;;;1.60;;
12112;SDS011;6120;52.250;8.478;2022-09-01T06:01:45;2.45;;;1.38;;
12112;SDS011;6120;52.250;8.478;2022-09-01T06:04:16;3.50;;;1.60;;
12112;SDS011;6120;52.250;8.478;2022-09-01T06:06:44;2.63;;;1.30;;
12112;SDS011;6120;52.250;8.478;2022-09-01T06:09:35;3.42;;;1.58;;
12112;SDS011;6120;52.250;8.478;2022-09-01T06:12:03;2.72;;;1.63;;
12112;SDS011;6120;52.250;8.478;2022-09-01T06:16:58;1.92;;;1.23;;
12112;SDS011;6120;52.250;8.478;2022-09-01T06:19:26;4.90;;;1.60;;
12112;SDS011;6120;52.250;8.478;2022-09-01T06:21:54;2.72;;;1.30;;
12112;SDS011;6120;52.250;8.478;2022-09-01T06:24:22;4.65;;;1.42;;
12112;SDS011;6120;52.250;8.478;2022-09-01T06:26:48;3.10;;;1.30;;
12112;SDS011;6120;52.250;8.478;2022-09-01T06:29:15;5.60;;;1.10;;
12112;SDS011;6120;52.250;8.478;2022-09-01T06:31:43;2.28;;;1.20;;
12112;SDS011;6120;52.250;8.478;2022-09-01T06:34:11;1.60;;;0.90;;
12112;SDS011;6120;52.250;8.478;2022-09-01T06:36:43;3.08;;;1.10;;
12112;SDS011;6120;52.250;8.478;2022-09-01T06:39:11;4.88;;;1.23;;
12112;SDS011;6120;52.250;8.478;2022-09-01T06:41:45;2.33;;;1.00;;
12112;SDS011;6120;52.250;8.478;2022-09-01T06:44:18;2.45;;;1.10;;
12112;SDS011;6120;52.250;8.478;2022-09-01T06:46:48;2.00;;;0.90;;
12112;SDS011;6120;52.250;8.478;2022-09-01T06:49:17;2.15;;;1.10;;
12112;SDS011;6120;52.250;8.478;2022-09-01T06:51:58;5.00;;;0.95;;
12112;SDS011;6120;52.250;8.478;2022-09-01T06:54:25;1.92;;;1.10;;
12112;SDS011;6120;52.250;8.478;2022-09-01T06:56:52;2.38;;;1.10;;
12112;SDS011;6120;52.250;8.478;2022-09-01T06:59:19;2.70;;;1.20;;
12112;SDS011;6120;52.250;8.478;2022-09-01T07:01:47;4.22;;;1.13;;
12112;SDS011;6120;52.250;8.478;2022-09-01T07:04:27;3.20;;;1.40;;
12112;SDS011;6120;52.250;8.478;2022-09-01T07:06:55;1.65;;;0.77;;
12112;SDS011;6120;52.250;8.478;2022-09-01T07:09:42;2.53;;;1.10;;
12112;SDS011;6120;52.250;8.478;2022-09-01T07:12:29;2.45;;;1.13;;
12112;SDS011;6120;52.250;8.478;2022-09-01T07:14:57;3.22;;;1.30;;
12112;SDS011;6120;52.250;8.478;2022-09-01T07:17:48;4.35;;;1.00;;
12112;SDS011;6120;52.250;8.478;2022-09-01T07:20:18;1.60;;;1.00;;
12112;SDS011;6120;52.250;8.478;2022-09-01T07:22:50;2.33;;;1.10;;
12112;SDS011;6120;52.250;8.478;2022-09-01T07:25:36;2.33;;;1.20;;
12112;SDS011;6120;52.250;8.478;2022-09-01T07:28:24;2.10;;;1.00;;
12112;SDS011;6120;52.250;8.478;2022-09-01T07:31:02;2.75;;;1.25;;
12112;SDS011;6120;52.250;8.478;2022-09-01T07:33:51;3.05;;;1.20;;
12112;SDS011;6120;52.250;8.478;2022-09-01T07:36:40;1.85;;;1.10;;
12112;SDS011;6120;52.250;8.478;2022-09-01T07:39:27;1.75;;;0.90;;
12112;SDS011;6120;52.250;8.478;2022-09-01T07:42:16;1.83;;;1.20;;
12112;SDS011;6120;52.250;8.478;2022-09-01T07:45:03;3.30;;;1.30;;
12112;SDS011;6120;52.250;8.478;2022-09-01T07:47:54;3.58;;;1.20;;
12112;SDS011;6120;52.250;8.478;2022-09-01T07:50:21;3.63;;;1.50;;
12112;SDS011;6120;52.250;8.478;2022-09-01T07:53:05;2.42;;;1.25;;
12112;SDS011;6120;52.250;8.478;2022-09-01T07:55:34;3.05;;;1.27;;
12112;SDS011;6120;52.250;8.478;2022-09-01T07:58:01;3.50;;;1.30;;
12112;SDS011;6120;52.250;8.478;2022-09-01T08:00:28;3.33;;;1.65;;
12112;SDS011;6120;52.250;8.478;2022-09-01T08:02:57;2.58;;;1.23;;
12112;SDS011;6120;52.250;8.478;2022-09-01T08:05:24;2.45;;;1.10;;
12112;SDS011;6120;52.250;8.478;2022-09-01T08:07:52;1.73;;;1.05;;
12112;SDS011;6120;52.250;8.478;2022-09-01T08:10:20;4.10;;;1.38;;
12112;SDS011;6120;52.250;8.478;2022-09-01T08:12:47;3.80;;;1.23;;
12112;SDS011;6120;52.250;8.478;2022-09-01T08:15:21;6.22;;;1.20;;
12112;SDS011;6120;52.250;8.478;2022-09-01T08:18:09;2.85;;;1.40;;
12112;SDS011;6120;52.250;8.478;2022-09-01T08:20:40;4.18;;;1.67;;
12112;SDS011;6120;52.250;8.478;2022-09-01T08:23:13;3.30;;;1.25;;
12112;SDS011;6120;52.250;8.478;2022-09-01T08:25:41;2.90;;;1.25;;
12112;SDS011;6120;52.250;8.478;2022-09-01T08:28:10;4.85;;;1.40;;
12112;SDS011;6120;52.250;8.478;2022-09-01T08:30:38;3.72;;;1.38;;
12112;SDS011;6120;52.250;8.478;2022-09-01T08:33:06;2.67;;;1.30;;
12112;SDS011;6120;52.250;8.478;2022-09-01T08:35:40;5.72;;;1.58;;
12112;SDS011;6120;52.250;8.478;2022-09-01T08:38:08;3.08;;;1.15;;
12112;SDS011;6120;52.250;8.478;2022-09-01T08:40:35;4.00;;;1.23;;
12112;SDS011;6120;52.250;8.478;2022-09-01T08:43:20;4.70;;;1.33;;
12112;SDS011;6120;52.250;8.478;2022-09-01T08:48:39;6.18;;;1.77;;
12112;SDS011;6120;52.250;8.478;2022-09-01T08:54:02;2.70;;;1.00;;
12112;SDS011;6120;52.250;8.478;2022-09-01T08:56:32;2.20;;;1.17;;
12112;SDS011;6120;52.250;8.478;2022-09-01T08:59:01;2.78;;;1.17;;
12112;SDS011;6120;52.250;8.478;2022-09-01T09:01:46;2.10;;;1.10;;
12112;SDS011;6120;52.250;8.478;2022-09-01T09:05:27;2.35;;;1.10;;
12112;SDS011;6120;52.250;8.478;2022-09-01T09:16:01;2.25;;;0.80;;
12112;SDS011;6120;52.250;8.478;2022-09-01T09:18:46;2.20;;;0.90;;
12112;SDS011;6120;52.250;8.478;2022-09-01T09:21:28;3.70;;;1.10;;
12112;SDS011;6120;52.250;8.478;2022-09-01T09:27:04;1.42;;;0.90;;
12112;SDS011;6120;52.250;8.478;2022-09-01T09:29:35;2.22;;;0.90;;
12112;SDS011;6120;52.250;8.478;2022-09-01T09:32:03;5.95;;;1.05;;
12112;SDS011;6120;52.250;8.478;2022-09-01T09:34:33;1.80;;;0.90;;
12112;SDS011;6120;52.250;8.478;2022-09-01T09:37:24;5.40;;;1.17;;
12112;SDS011;6120;52.250;8.478;2022-09-01T09:40:03;2.60;;;1.02;;
12112;SDS011;6120;52.250;8.478;2022-09-01T09:45:25;1.52;;;0.90;;
12112;SDS011;6120;52.250;8.478;2022-09-01T09:48:27;1.58;;;0.80;;
12112;SDS011;6120;52.250;8.478;2022-09-01T09:50:55;3.17;;;1.00;;
12112;SDS011;6120;52.250;8.478;2022-09-01T09:53:41;3.65;;;1.08;;
12112;SDS011;6120;52.250;8.478;2022-09-01T09:58:41;2.67;;;1.20;;
12112;SDS011;6120;52.250;8.478;2022-09-01T10:03:44;3.38;;;1.15;;
12112;SDS011;6120;52.250;8.478;2022-09-01T10:06:28;1.77;;;0.90;;
12112;SDS011;6120;52.250;8.478;2022-09-01T10:08:57;5.10;;;1.10;;
12112;SDS011;6120;52.250;8.478;2022-09-01T10:11:28;1.60;;;0.87;;
12112;SDS011;6120;52.250;8.478;2022-09-01T10:14:18;2.92;;;0.82;;
12112;SDS011;6120;52.250;8.478;2022-09-01T10:17:09;2.03;;;0.98;;
12112;SDS011;6120;52.250;8.478;2022-09-01T10:19:44;2.13;;;1.00;;
12112;SDS011;6120;52.250;8.478;2022-09-01T10:22:16;2.10;;;0.93;;
12112;SDS011;6120;52.250;8.478;2022-09-01T10:24:43;2.17;;;1.00;;
12112;SDS011;6120;52.250;8.478;2022-09-01T10:27:19;1.98;;;1.15;;
12112;SDS011;6120;52.250;8.478;2022-09-01T10:30:00;4.80;;;1.50;;
12112;SDS011;6120;52.250;8.478;2022-09-01T10:32:45;3.58;;;1.15;;
12112;SDS011;6120;52.250;8.478;2022-09-01T10:35:29;2.65;;;1.08;;
12112;SDS011;6120;52.250;8.478;2022-09-01T10:37:58;2.25;;;1.00;;
12112;SDS011;6120;52.250;8.478;2022-09-01T10:45:53;3.45;;;1.17;;
12112;SDS011;6120;52.250;8.478;2022-09-01T10:48:31;1.85;;;1.00;;
12112;SDS011;6120;52.250;8.478;2022-09-01T10:53:57;2.13;;;0.98;;
12112;SDS011;6120;52.250;8.478;2022-09-01T11:02:12;2.10;;;1.00;;
12112;SDS011;6120;52.250;8.478;2022-09-01T11:15:45;6.35;;;1.40;;
12112;SDS011;6120;52.250;8.478;2022-09-01T11:18:15;1.65;;;0.80;;
12112;SDS011;6120;52.250;8.478;2022-09-01T11:20:53;5.32;;;0.90;;
12112;SDS011;6120;52.250;8.478;2022-09-01T11:25:59;4.72;;;1.00;;
12112;SDS011;6120;52.250;8.478;2022-09-01T11:28:44;3.08;;;0.85;;
12112;SDS011;6120;52.250;8.478;2022-09-01T11:34:02;2.75;;;0.70;;
12112;SDS011;6120;52.250;8.478;2022-09-01T11:36:45;1.58;;;0.88;;
12112;SDS011;6120;52.250;8.478;2022-09-01T11:45:15;1.83;;;0.88;;
12112;SDS011;6120;52.250;8.478;2022-09-01T11:47:57;2.85;;;0.90;;
12112;SDS011;6120;52.250;8.478;2022-09-01T11:50:27;0.88;;;0.63;;
12112;SDS011;6120;52.250;8.478;2022-09-01T11:53:00;1.52;;;0.85;;
12112;SDS011;6120;52.250;8.478;2022-09-01T11:57:58;6.82;;;0.90;;
12112;SDS011;6120;52.250;8.478;2022-09-01T12:00:29;1.40;;;0.80;;
12112;SDS011;6120;52.250;8.478;2022-09-01T12:02:58;2.13;;;0.82;;
12112;SDS011;6120;52.250;8.478;2022-09-01T12:07:52;3.10;;;0.82;;
12112;SDS011;6120;52.250;8.478;2022-09-01T12:13:26;4.50;;;0.90;;
12112;SDS011;6120;52.250;8.478;2022-09-01T12:16:00;2.47;;;0.90;;
12112;SDS011;6120;52.250;8.478;2022-09-01T12:18:49;1.42;;;0.60;;
12112;SDS011;6120;52.250;8.478;2022-09-01T12:26:47;0.80;;;0.70;;
12112;SDS011;6120;52.250;8.478;2022-09-01T12:29:16;1.35;;;0.68;;
12112;SDS011;6120;52.250;8.478;2022-09-01T12:31:44;2.03;;;0.73;;
12112;SDS011;6120;52.250;8.478;2022-09-01T12:39:31;1.98;;;0.75;;
12112;SDS011;6120;52.250;8.478;2022-09-01T12:42:07;1.88;;;0.90;;
12112;SDS011;6120;52.250;8.478;2022-09-01T12:47:04;3.97;;;0.93;;
12112;SDS011;6120;52.250;8.478;2022-09-01T12:49:40;2.40;;;0.80;;
12112;SDS011;6120;52.250;8.478;2022-09-01T12:54:46;1.90;;;0.80;;
12112;SDS011;6120;52.250;8.478;2022-09-01T12:57:27;0.75;;;0.63;;
12112;SDS011;6120;52.250;8.478;2022-09-01T13:02:32;2.65;;;0.70;;
12112;SDS011;6120;52.250;8.478;2022-09-01T13:08:06;1.10;;;0.70;;
12112;SDS011;6120;52.250;8.478;2022-09-01T13:10:50;2.10;;;0.70;;
12112;SDS011;6120;52.250;8.478;2022-09-01T13:13:22;1.42;;;0.82;;
12112;SDS011;6120;52.250;8.478;2022-09-01T13:15:52;1.38;;;0.68;;
12112;SDS011;6120;52.250;8.478;2022-09-01T13:18:21;1.30;;;0.70;;
12112;SDS011;6120;52.250;8.478;2022-09-01T13:20:50;1.02;;;0.60;;
12112;SDS011;6120;52.250;8.478;2022-09-01T13:23:18;3.05;;;0.70;;
12112;SDS011;6120;52.250;8.478;2022-09-01T13:25:46;2.90;;;0.70;;
12112;SDS011;6120;52.250;8.478;2022-09-01T13:28:13;2.45;;;0.60;;
12112;SDS011;6120;52.250;8.478;2022-09-01T13:30:42;2.08;;;0.70;;
12112;SDS011;6120;52.250;8.478;2022-09-01T13:33:11;4.63;;;0.80;;
12112;SDS011;6120;52.250;8.478;2022-09-01T13:35:46;1.10;;;0.50;;
12112;SDS011;6120;52.250;8.478;2022-09-01T13:38:13;1.77;;;0.57;;
12112;SDS011;6120;52.250;8.478;2022-09-01T13:40:42;2.95;;;0.60;;
12112;SDS011;6120;52.250;8.478;2022-09-01T13:43:14;1.15;;;0.68;;
12112;SDS011;6120;52.250;8.478;2022-09-01T13:45:41;0.98;;;0.60;;
12112;SDS011;6120;52.250;8.478;2022-09-01T13:48:10;1.33;;;0.55;;
12112;SDS011;6120;52.250;8.478;2022-09-01T13:50:42;1.98;;;0.80;;
12112;SDS011;6120;52.250;8.478;2022-09-01T13:53:29;1.63;;;0.88;;
12112;SDS011;6120;52.250;8.478;2022-09-01T13:55:56;1.00;;;0.57;;
12112;SDS011;6120;52.250;8.478;2022-09-01T13:58:28;1.00;;;0.70;;
12112;SDS011;6120;52.250;8.478;2022-09-01T14:00:54;1.73;;;0.57;;
12112;SDS011;6120;52.250;8.478;2022-09-01T14:03:24;2.55;;;0.77;;
12112;SDS011;6120;52.250;8.478;2022-09-01T14:05:52;0.77;;;0.50;;
12112;SDS011;6120;52.250;8.478;2022-09-01T14:08:19;0.95;;;0.50;;
12112;SDS011;6120;52.250;8.478;2022-09-01T14:10:49;2.72;;;0.75;;
12112;SDS011;6120;52.250;8.478;2022-09-01T14:13:17;1.20;;;0.80;;
12112;SDS011;6120;52.250;8.478;2022-09-01T14:15:45;2.00;;;0.70;;
12112;SDS011;6120;52.250;8.478;2022-09-01T14:18:12;1.42;;;0.70;;
12112;SDS011;6120;52.250;8.478;2022-09-01T14:20:42;2.10;;;0.68;;
12112;SDS011;6120;52.250;8.478;2022-09-01T14:23:10;3.20;;;0.60;;
12112;SDS011;6120;52.250;8.478;2022-09-01T14:25:44;1.85;;;0.68;;
12112;SDS011;6120;52.250;8.478;2022-09-01T14:28:12;1.17;;;0.50;;
12112;SDS011;6120;52.250;8.478;2022-09-01T14:30:41;0.85;;;0.52;;
12112;SDS011;6120;52.250;8.478;2022-09-01T14:33:08;1.08;;;0.45;;
12112;SDS011;6120;52.250;8.478;2022-09-01T14:35:36;1.90;;;0.60;;
12112;SDS011;6120;52.250;8.478;2022-09-01T14:38:04;3.20;;;0.80;;
12112;SDS011;6120;52.250;8.478;2022-09-01T14:40:34;1.73;;;0.60;;
12112;SDS011;6120;52.250;8.478;2022-09-01T14:43:05;1.30;;;0.65;;
12112;SDS011;6120;52.250;8.478;2022-09-01T14:45:32;0.63;;;0.47;;
12112;SDS011;6120;52.250;8.478;2022-09-01T14:47:59;0.88;;;0.60;;
12112;SDS011;6120;52.250;8.478;2022-09-01T14:50:26;1.13;;;0.70;;
12112;SDS011;6120;52.250;8.478;2022-09-01T14:52:58;2.80;;;0.77;;
12112;SDS011;6120;52.250;8.478;2022-09-01T14:55:27;3.03;;;1.00;;
12112;SDS011;6120;52.250;8.478;2022-09-01T14:57:55;2.55;;;0.50;;
12112;SDS011;6120;52.250;8.478;2022-09-01T15:00:23;3.83;;;0.75;;
12112;SDS011;6120;52.250;8.478;2022-09-01T15:02:53;1.90;;;0.68;;
12112;SDS011;6120;52.250;8.478;2022-09-01T15:07:47;1.73;;;0.60;;
12112;SDS011;6120;52.250;8.478;2022-09-01T15:10:16;1.60;;;0.70;;
12112;SDS011;6120;52.250;8.478;2022-09-01T15:12:51;1.88;;;0.63;;
12112;SDS011;6120;52.250;8.478;2022-09-01T15:15:21;3.25;;;0.80;;
12112;SDS011;6120;52.250;8.478;2022-09-01T15:17:48;1.73;;;0.60;;
12112;SDS011;6120;52.250;8.478;2022-09-01T15:20:15;1.88;;;0.60;;
12112;SDS011;6120;52.250;8.478;2022-09-01T15:23:00;0.50;;;0.50;;
12112;SDS011;6120;52.250;8.478;2022-09-01T15:25:27;2.40;;;0.70;;
12112;SDS011;6120;52.250;8.478;2022-09-01T15:27:54;0.68;;;0.40;;
12112;SDS011;6120;52.250;8.478;2022-09-01T15:30:20;2.70;;;0.50;;
12112;SDS011;6120;52.250;8.478;2022-09-01T15:32:48;2.45;;;0.70;;
12112;SDS011;6120;52.250;8.478;2022-09-01T15:35:16;1.25;;;0.60;;
12112;SDS011;6120;52.250;8.478;2022-09-01T15:37:47;1.27;;;0.50;;
12112;SDS011;6120;52.250;8.478;2022-09-01T15:40:16;1.13;;;0.63;;
12112;SDS011;6120;52.250;8.478;2022-09-01T15:42:43;1.45;;;0.60;;
12112;SDS011;6120;52.250;8.478;2022-09-01T15:45:12;2.88;;;0.57;;
12112;SDS011;6120;52.250;8.478;2022-09-01T15:47:43;1.33;;;0.60;;
12112;SDS011;6120;52.250;8.478;2022-09-01T15:50:12;1.08;;;0.60;;
12112;SDS011;6120;52.250;8.478;2022-09-01T15:55:21;2.03;;;0.75;;
12112;SDS011;6120;52.250;8.478;2022-09-01T15:57:49;0.82;;;0.50;;
12112;SDS011;6120;52.250;8.478;2022-09-01T16:00:18;5.30;;;1.13;;
12112;SDS011;6120;52.250;8.478;2022-09-01T16:02:50;1.42;;;0.60;;
12112;SDS011;6120;52.250;8.478;2022-09-01T16:05:17;2.55;;;0.80;;
12112;SDS011;6120;52.250;8.478;2022-09-01T16:07:44;4.30;;;0.57;;
12112;SDS011;6120;52.250;8.478;2022-09-01T16:10:10;0.60;;;0.60;;
12112;SDS011;6120;52.250;8.478;2022-09-01T16:12:40;0.65;;;0.60;;
12112;SDS011;6120;52.250;8.478;2022-09-01T16:15:10;0.57;;;0.45;;
12112;SDS011;6120;52.250;8.478;2022-09-01T16:20:58;5.05;;;1.10;;
12112;SDS011;6120;52.250;8.478;2022-09-01T16:23:11;2.88;;;0.80;;
12112;SDS011;6120;52.250;8.478;2022-09-01T16:25:42;2.88;;;0.65;;
12112;SDS011;6120;52.250;8.478;2022-09-01T16:31:20;2.50;;;0.50;;
12112;SDS011;6120;52.250;8.478;2022-09-01T16:33:51;1.55;;;0.70;;
12112;SDS011;6120;52.250;8.478;2022-09-01T16:36:35;2.03;;;0.50;;
12112;SDS011;6120;52.250;8.478;2022-09-01T16:50:51;5.68;;;0.80;;
12112;SDS011;6120;52.250;8.478;2022-09-01T16:53:34;0.93;;;0.52;;
12112;SDS011;6120;52.250;8.478;2022-09-01T16:56:08;2.78;;;0.80;;
12112;SDS011;6120;52.250;8.478;2022-09-01T17:12:51;1.10;;;0.52;;
12112;SDS011;6120;52.250;8.478;2022-09-01T17:15:17;0.98;;;0.60;;
12112;SDS011;6120;52.250;8.478;2022-09-01T17:17:47;1.52;;;0.52;;
12112;SDS011;6120;52.250;8.478;2022-09-01T17:20:31;0.70;;;0.47;;
12112;SDS011;6120;52.250;8.478;2022-09-01T17:23:05;1.63;;;0.57;;
12112;SDS011;6120;52.250;8.478;2022-09-01T17:26:09;0.52;;;0.43;;
12112;SDS011;6120;52.250;8.478;2022-09-01T17:28:38;1.33;;;0.70;;
12112;SDS011;6120;52.250;8.478;2022-09-01T17:32:14;0.70;;;0.57;;
12112;SDS011;6120;52.250;8.478;2022-09-01T17:34:27;1.65;;;0.65;;
12112;SDS011;6120;52.250;8.478;2022-09-01T17:44:51;1.17;;;0.57;;
12112;SDS011;6120;52.250;8.478;2022-09-01T17:53:31;0.88;;;0.60;;
12112;SDS011;6120;52.250;8.478;2022-09-01T18:16:24;1.40;;;0.60;;
12112;SDS011;6120;52.250;8.478;2022-09-01T18:18:54;1.15;;;0.70;;
12112;SDS011;6120;52.250;8.478;2022-09-01T18:21:25;2.95;;;0.70;;
12112;SDS011;6120;52.250;8.478;2022-09-01T18:27:27;1.58;;;0.70;;
12112;SDS011;6120;52.250;8.478;2022-09-01T18:29:58;1.90;;;0.60;;
12112;SDS011;6120;52.250;8.478;2022-09-01T18:32:39;1.63;;;0.73;;
12112;SDS011;6120;52.250;8.478;2022-09-01T18:35:18;1.05;;;0.60;;